Aérodrome :
LOGIN :

S'inscrire | Disclaimer

   EN    FR    IT 

 










Légende :    VFR   VFR Marginal   IFR   IFR Intensif   IFR Très Intensif
Visi : 
Plafond : 
>= 8 km
>= 3000ft
5 à 8 km
1000 à 3000 ft
1500m à 5 km
500 à 1000 ft
800 à 1500m
200 à 500 ft
< 800m
< 200 ft
Symboles :   Orages  Brouillard  Fortes neiges  Fortes précipitations  Vent > 20 kt
SIGMETs :   Divers  Orages  Givrage  Turbulence  Onde Orograph.  Cendres Volcan.







- Altitude de l'aérodrome : 375 ft
- Code IATA : MST


EHBK - Maastricht Aachen

DERNIER METAR :
  • 221225Z AUTO 06018KT 9999 FEW039 03/M05 Q1022 NOSIG

METARs EXPIRÉS :
  • 221155Z AUTO 05014KT 9999 FEW032 03/M04 Q1022 NOSIG
  • 221125Z AUTO 06014KT 030V090 9999 NCD 03/M04 Q1022 NOSIG
  • 221055Z AUTO 06013KT 020V090 9999 NCD 02/M04 Q1023 NOSIG
  • 221025Z AUTO 08011KT 040V110 9999 NCD 02/M04 Q1023 NOSIG
  • 220955Z AUTO 06011KT 030V120 9999 NCD 01/M04 Q1023 NOSIG
  • 220925Z AUTO 06010KT 030V090 9999 NCD 00/M04 Q1023 NOSIG

TAF TAF EHBK
Valide du 22 à 12h jusqu'au 23 à 18h UTC


221114Z 2212/2318 05012KT CAVOK
Pas de NOTAMs connus pour ce terrain.



MET'MAP, la Météo Aéronautique d'un coup d'oeil ! - Copyright ORBIFLY Décembre 2007 - Disclaimer

ORBIFLY MET'MAP TEAM :

Programmation & Développement : Alexandra Zaïnal
Conception & Développement : Baudouin d'Aumeries
Co-Programmation & Développement : Marc-Olivier Méhu
Soutien technique & logistique : Manuel Goepfert

Contact : metmap@orbifly.com




SOURCES & CREDITS :

   NOAA